Time;durP1;ratioP1;P1;durP2;ratioP2;P2;SDS_P1;SDS_P2;PMS_P1;PMS_P2;Temp;Humidity;BMP_temperature;BMP_pressure;BME280_temperature;BME280_humidity;BME280_pressure;Samples;Min_cycle;Max_cycle;Signal;HPM_P1;HPM_P2
2022/03/19 00:00:19;;;;;;;18.60;6.75;;;;;;;;;;5014283;28;94125;-71
2022/03/19 00:02:45;;;;;;;11.98;5.97;;;;;;;;;;5014141;28;92530;-71
2022/03/19 00:05:12;;;;;;;11.30;5.05;;;;;;;;;;5014032;28;93107;-71
2022/03/19 00:07:41;;;;;;;15.35;4.97;;;;;;;;;;5015548;28;93699;-71
2022/03/19 00:10:10;;;;;;;20.55;6.50;;;;;;;;;;5015436;28;92547;-71
2022/03/19 00:12:40;;;;;;;15.30;5.60;;;;;;;;;;5014684;28;93804;-71
2022/03/19 00:15:07;;;;;;;17.23;5.05;;;;;;;;;;5013053;28;97219;-71
2022/03/19 00:17:34;;;;;;;19.63;5.00;;;;;;;;;;5018407;28;92521;-71
2022/03/19 00:20:00;;;;;;;11.90;4.63;;;;;;;;;;5015359;27;93426;-71
2022/03/19 00:22:27;;;;;;;24.42;4.97;;;;;;;;;;5014446;28;92404;-71
2022/03/19 00:24:53;;;;;;;20.38;4.70;;;;;;;;;;5015043;28;93982;-71
2022/03/19 00:27:19;;;;;;;16.10;5.95;;;;;;;;;;5013890;28;94425;-71
2022/03/19 00:29:46;;;;;;;14.45;4.50;;;;;;;;;;5015190;28;92476;-71
2022/03/19 00:32:12;;;;;;;15.02;4.68;;;;;;;;;;5021365;28;93976;-71
2022/03/19 00:34:38;;;;;;;18.25;5.22;;;;;;;;;;5034272;28;93086;-71
2022/03/19 00:37:05;;;;;;;15.98;5.10;;;;;;;;;;5027963;28;92850;-71
2022/03/19 00:39:31;;;;;;;16.30;5.40;;;;;;;;;;5014754;28;94865;-71
2022/03/19 00:41:57;;;;;;;20.33;5.25;;;;;;;;;;5014892;28;92424;-71
2022/03/19 00:44:24;;;;;;;12.70;3.85;;;;;;;;;;5013580;28;93968;-71
2022/03/19 00:46:50;;;;;;;17.15;4.35;;;;;;;;;;5014133;28;94132;-71
2022/03/19 00:49:17;;;;;;;15.35;4.70;;;;;;;;;;5014394;28;92467;-71
2022/03/19 00:51:43;;;;;;;18.48;4.78;;;;;;;;;;5014762;28;94087;-71
2022/03/19 00:54:11;;;;;;;13.07;4.43;;;;;;;;;;5013651;28;94082;-71
2022/03/19 00:56:37;;;;;;;14.13;4.22;;;;;;;;;;5014186;28;91751;-71
2022/03/19 00:59:04;;;;;;;8.93;3.90;;;;;;;;;;5012984;28;93300;-71
2022/03/19 01:01:30;;;;;;;8.98;3.85;;;;;;;;;;5016050;28;96653;-71
2022/03/19 01:03:57;;;;;;;12.48;4.63;;;;;;;;;;5012094;28;94992;-71
2022/03/19 01:06:23;;;;;;;14.52;3.83;;;;;;;;;;5013063;28;94258;-71
2022/03/19 01:08:55;;;;;;;17.77;5.03;;;;;;;;;;5013983;28;92436;-71
2022/03/19 01:11:23;;;;;;;11.02;3.90;;;;;;;;;;5013206;28;94008;-71
2022/03/19 01:13:50;;;;;;;12.75;5.15;;;;;;;;;;5013932;28;94303;-71
2022/03/19 01:16:18;;;;;;;16.80;5.60;;;;;;;;;;5013314;28;92952;-71
2022/03/19 01:18:51;;;;;;;21.63;4.60;;;;;;;;;;5013469;28;94234;-71
2022/03/19 01:21:18;;;;;;;;;;;;;;;;;;5018265;28;92404;-71
2022/03/19 01:23:45;;;;;;;14.65;4.45;;;;;;;;;;5013805;28;122282;-71
2022/03/19 01:26:11;;;;;;;16.42;4.75;;;;;;;;;;5013618;28;94423;-71
2022/03/19 01:28:38;;;;;;;14.77;4.35;;;;;;;;;;5011768;28;94975;-71
2022/03/19 01:31:04;;;;;;;17.13;4.32;;;;;;;;;;5013346;28;96330;-71
2022/03/19 01:33:32;;;;;;;22.17;5.13;;;;;;;;;;5013663;28;93961;-71
2022/03/19 01:35:59;;;;;;;18.90;5.40;;;;;;;;;;5012654;28;93731;-71
2022/03/19 01:38:25;;;;;;;14.32;4.93;;;;;;;;;;5013148;28;93874;-71
2022/03/19 01:40:52;;;;;;;13.57;4.78;;;;;;;;;;5014080;28;93459;-71
2022/03/19 01:43:18;;;;;;;26.05;5.35;;;;;;;;;;5015982;28;93088;-71
2022/03/19 01:45:44;;;;;;;22.73;7.10;;;;;;;;;;5014346;28;92724;-71
2022/03/19 01:48:11;;;;;;;18.63;4.78;;;;;;;;;;5022904;28;92452;-71
2022/03/19 01:50:37;;;;;;;13.65;4.90;;;;;;;;;;5016415;27;92443;-71
2022/03/19 01:53:03;;;;;;;13.63;4.20;;;;;;;;;;5011588;28;96695;-71
2022/03/19 01:55:30;;;;;;;16.35;5.32;;;;;;;;;;5013358;28;92997;-71
2022/03/19 01:57:57;;;;;;;18.73;4.53;;;;;;;;;;5012793;27;93308;-71
2022/03/19 02:00:24;;;;;;;19.13;5.20;;;;;;;;;;5013043;28;93162;-71
2022/03/19 02:02:50;;;;;;;19.02;5.40;;;;;;;;;;5013722;28;92544;-71
2022/03/19 02:05:18;;;;;;;16.20;5.68;;;;;;;;;;5015277;28;93912;-71
2022/03/19 02:07:45;;;;;;;16.73;4.85;;;;;;;;;;5013082;28;92443;-71
2022/03/19 02:10:13;;;;;;;17.27;5.30;;;;;;;;;;5012928;28;93993;-71
2022/03/19 02:12:41;;;;;;;15.05;4.90;;;;;;;;;;5013097;28;94010;-71
2022/03/19 02:15:09;;;;;;;16.42;5.25;;;;;;;;;;5012733;28;92502;-71
2022/03/19 02:17:35;;;;;;;22.00;5.40;;;;;;;;;;5010869;28;95216;-71
2022/03/19 02:20:03;;;;;;;14.32;4.55;;;;;;;;;;5012518;28;94131;-71
2022/03/19 02:22:29;;;;;;;14.88;4.45;;;;;;;;;;5012932;28;92508;-71
2022/03/19 02:27:42;;;;;;;20.02;4.72;;;;;;;;;;4996176;28;94165;-71
2022/03/19 02:30:10;;;;;;;13.63;4.80;;;;;;;;;;4993314;28;94088;-71
2022/03/19 02:32:38;;;;;;;16.20;4.82;;;;;;;;;;4992428;28;94208;-71
2022/03/19 02:35:05;;;;;;;20.58;5.05;;;;;;;;;;5001600;28;91746;-71
2022/03/19 02:37:41;;;;;;;17.85;5.40;;;;;;;;;;5013444;27;92457;-71
2022/03/19 02:40:15;;;;;;;27.15;7.25;;;;;;;;;;5011522;28;94127;-71
2022/03/19 02:42:42;;;;;;;27.10;6.07;;;;;;;;;;5011480;28;94939;-71
2022/03/19 02:45:09;;;;;;;15.00;5.00;;;;;;;;;;5012345;28;96366;-71
2022/03/19 02:47:56;;;;;;;14.40;4.40;;;;;;;;;;5012207;28;94242;-71
2022/03/19 02:50:27;;;;;;;18.98;5.95;;;;;;;;;;5015649;28;92949;-71
2022/03/19 02:52:54;;;;;;;17.42;4.55;;;;;;;;;;5012866;28;94449;-71
2022/03/19 02:55:21;;;;;;;26.95;6.70;;;;;;;;;;5011935;28;92492;-72
2022/03/19 02:57:47;;;;;;;16.13;5.03;;;;;;;;;;5014134;28;93130;-71
2022/03/19 03:00:14;;;;;;;17.58;5.18;;;;;;;;;;5019789;28;93475;-71
2022/03/19 03:02:40;;;;;;;23.92;6.00;;;;;;;;;;5013044;28;92479;-71
2022/03/19 03:05:09;;;;;;;14.50;4.50;;;;;;;;;;5011518;28;93057;-71
2022/03/19 03:07:36;;;;;;;22.05;5.55;;;;;;;;;;5010340;28;95502;-72
2022/03/19 03:10:03;;;;;;;23.55;5.15;;;;;;;;;;5012525;28;93174;-72
2022/03/19 03:12:29;;;;;;;18.63;5.90;;;;;;;;;;5015652;28;92936;-72
2022/03/19 03:14:56;;;;;;;19.95;5.90;;;;;;;;;;5012369;28;92445;-71
2022/03/19 03:17:23;;;;;;;19.70;4.78;;;;;;;;;;5012416;28;93895;-71
2022/03/19 03:19:51;;;;;;;23.02;6.57;;;;;;;;;;5011912;28;94050;-71
2022/03/19 03:22:17;;;;;;;25.17;5.68;;;;;;;;;;5013666;28;92454;-71
2022/03/19 03:24:44;;;;;;;24.17;6.13;;;;;;;;;;5016338;28;94021;-72
2022/03/19 03:27:10;;;;;;;20.58;5.07;;;;;;;;;;5015069;28;94229;-71
2022/03/19 03:29:36;;;;;;;13.00;5.03;;;;;;;;;;5015413;28;93057;-71
2022/03/19 03:32:04;;;;;;;16.25;5.53;;;;;;;;;;5017656;28;95316;-71
2022/03/19 03:34:30;;;;;;;18.67;5.38;;;;;;;;;;5015623;28;92465;-71
2022/03/19 03:36:56;;;;;;;15.18;4.70;;;;;;;;;;5015303;28;93999;-71
2022/03/19 03:39:23;;;;;;;23.55;6.55;;;;;;;;;;5015489;28;95043;-72
2022/03/19 03:41:49;;;;;;;23.55;6.80;;;;;;;;;;5015796;28;92463;-71
2022/03/19 03:44:15;;;;;;;16.13;5.85;;;;;;;;;;5014026;28;94191;-72
2022/03/19 03:46:42;;;;;;;22.33;6.13;;;;;;;;;;5015405;28;94196;-71
2022/03/19 03:49:08;;;;;;;13.35;5.45;;;;;;;;;;5016158;28;91694;-71
2022/03/19 03:51:35;;;;;;;20.85;5.68;;;;;;;;;;5015065;28;92660;-71
2022/03/19 03:54:01;;;;;;;20.42;6.70;;;;;;;;;;5017965;28;93570;-71
2022/03/19 03:56:27;;;;;;;19.88;5.28;;;;;;;;;;5012904;28;94835;-71
2022/03/19 03:58:54;;;;;;;20.75;6.25;;;;;;;;;;5015378;28;93297;-72
2022/03/19 04:01:20;;;;;;;21.63;6.70;;;;;;;;;;5015306;28;92534;-71
2022/03/19 04:03:47;;;;;;;18.77;6.70;;;;;;;;;;5014988;28;93821;-71
2022/03/19 04:06:13;;;;;;;30.52;6.28;;;;;;;;;;5013141;27;94754;-71
2022/03/19 04:08:39;;;;;;;20.20;6.63;;;;;;;;;;5019235;28;92496;-71
2022/03/19 04:11:06;;;;;;;21.45;6.68;;;;;;;;;;5031010;28;93359;-71
2022/03/19 04:13:34;;;;;;;20.50;6.43;;;;;;;;;;5014182;28;93568;-71
2022/03/19 04:16:00;;;;;;;16.42;6.38;;;;;;;;;;5017412;28;92500;-71
2022/03/19 04:18:27;;;;;;;19.58;6.32;;;;;;;;;;5014039;28;94106;-71
2022/03/19 04:20:53;;;;;;;18.63;6.65;;;;;;;;;;5013313;28;94885;-72
2022/03/19 04:23:20;;;;;;;17.33;6.00;;;;;;;;;;5014815;28;95840;-71
2022/03/19 04:25:46;;;;;;;22.25;6.35;;;;;;;;;;5013706;28;94249;-71
2022/03/19 04:28:13;;;;;;;20.50;6.75;;;;;;;;;;5013770;28;94094;-71
2022/03/19 04:30:43;;;;;;;20.73;6.65;;;;;;;;;;5014701;28;93988;-71
2022/03/19 04:33:09;;;;;;;22.25;8.30;;;;;;;;;;5013557;28;95112;-71
2022/03/19 04:38:22;;;;;;;11.73;6.28;;;;;;;;;;5018386;28;93703;-71
2022/03/19 04:40:49;;;;;;;19.38;6.90;;;;;;;;;;5014531;28;92542;-71
2022/03/19 04:43:15;;;;;;;23.65;7.28;;;;;;;;;;5013176;28;93513;-71
2022/03/19 04:45:42;;;;;;;16.25;6.90;;;;;;;;;;5010866;28;96514;-71
2022/03/19 04:48:09;;;;;;;16.50;6.50;;;;;;;;;;5014270;28;93223;-71
2022/03/19 04:50:40;;;;;;;19.55;8.13;;;;;;;;;;5013833;28;93018;-71
2022/03/19 04:53:07;;;;;;;16.58;7.68;;;;;;;;;;5013033;28;94400;-71
2022/03/19 04:55:38;;;;;;;21.48;7.50;;;;;;;;;;5014517;28;92486;-71
2022/03/19 04:58:06;;;;;;;20.98;7.22;;;;;;;;;;5013281;28;93467;-71
2022/03/19 05:00:33;;;;;;;22.95;7.53;;;;;;;;;;5014790;28;93431;-71
2022/03/19 05:03:03;;;;;;;17.80;8.57;;;;;;;;;;5013906;28;93977;-71
2022/03/19 05:05:30;;;;;;;22.60;7.97;;;;;;;;;;5012698;28;92975;-71
2022/03/19 05:07:57;;;;;;;17.33;8.02;;;;;;;;;;5013169;28;92425;-71
2022/03/19 05:13:09;;;;;;;24.77;8.38;;;;;;;;;;5013209;28;93966;-71
2022/03/19 05:15:35;;;;;;;18.83;8.38;;;;;;;;;;5011667;28;92457;-71
2022/03/19 05:18:02;;;;;;;25.90;8.48;;;;;;;;;;5014474;28;94046;-71
2022/03/19 05:20:33;;;;;;;18.00;7.63;;;;;;;;;;5013711;28;94472;-71
2022/03/19 05:22:59;;;;;;;17.45;8.10;;;;;;;;;;5016460;28;92616;-71
2022/03/19 05:25:25;;;;;;;23.67;8.68;;;;;;;;;;5013799;28;94305;-71
2022/03/19 05:27:52;;;;;;;18.83;7.78;;;;;;;;;;5013710;28;91684;-71
2022/03/19 05:30:19;;;;;;;17.00;7.40;;;;;;;;;;5013926;28;93368;-71
2022/03/19 05:32:46;;;;;;;19.98;8.77;;;;;;;;;;5013929;28;94680;-71
2022/03/19 05:35:12;;;;;;;23.35;7.70;;;;;;;;;;5015331;28;94905;-71
2022/03/19 05:37:39;;;;;;;21.00;7.93;;;;;;;;;;5026706;28;96328;-71
2022/03/19 05:40:06;;;;;;;21.00;6.97;;;;;;;;;;5033750;28;93136;-71
2022/03/19 05:42:32;;;;;;;23.45;9.32;;;;;;;;;;5017335;27;92488;-71
2022/03/19 05:44:59;;;;;;;21.55;8.00;;;;;;;;;;5012619;28;93561;-71
2022/03/19 05:47:26;;;;;;;22.30;8.35;;;;;;;;;;5013558;28;92492;-70
2022/03/19 05:49:52;;;;;;;19.35;9.00;;;;;;;;;;5013572;28;92996;-71
2022/03/19 05:52:19;;;;;;;20.10;7.78;;;;;;;;;;5014001;28;93416;-70
2022/03/19 05:54:46;;;;;;;20.77;9.13;;;;;;;;;;5014004;28;92477;-70
2022/03/19 05:57:12;;;;;;;31.88;8.68;;;;;;;;;;5012959;28;94060;-71
2022/03/19 05:59:38;;;;;;;18.08;8.43;;;;;;;;;;5012029;28;95831;-71
2022/03/19 06:02:06;;;;;;;16.77;6.10;;;;;;;;;;5013554;28;92921;-71
2022/03/19 06:04:35;;;;;;;18.90;7.20;;;;;;;;;;5012898;28;93742;-71
2022/03/19 06:07:02;;;;;;;23.35;7.88;;;;;;;;;;5012523;28;92661;-70
2022/03/19 06:09:28;;;;;;;14.15;7.55;;;;;;;;;;5012055;28;94669;-71
2022/03/19 06:11:55;;;;;;;27.67;7.90;;;;;;;;;;5012742;28;94243;-71
2022/03/19 06:14:21;;;;;;;16.98;7.30;;;;;;;;;;5009924;28;92540;-71
2022/03/19 06:16:49;;;;;;;27.08;7.95;;;;;;;;;;5012133;28;94004;-71
2022/03/19 06:19:16;;;;;;;22.75;8.65;;;;;;;;;;5012702;28;93949;-71
2022/03/19 06:21:42;;;;;;;13.55;7.47;;;;;;;;;;5007487;28;93898;-71
2022/03/19 06:24:14;;;;;;;21.17;7.87;;;;;;;;;;5005374;28;95732;-70
2022/03/19 06:26:41;;;;;;;23.83;8.10;;;;;;;;;;5014562;28;94168;-71
2022/03/19 06:29:07;;;;;;;10.00;5.47;;;;;;;;;;5012894;28;93828;-70
2022/03/19 06:31:34;;;;;;;22.65;8.75;;;;;;;;;;5012316;28;93390;-70
2022/03/19 06:34:00;;;;;;;17.85;7.60;;;;;;;;;;5013862;28;92535;-70
2022/03/19 06:39:13;;;;;;;20.30;8.73;;;;;;;;;;5012383;28;93708;-71
2022/03/19 06:41:40;;;;;;;13.65;7.57;;;;;;;;;;5013870;28;91718;-71
2022/03/19 06:44:06;;;;;;;14.60;7.40;;;;;;;;;;5013053;28;93215;-71
2022/03/19 06:46:33;;;;;;;19.73;8.05;;;;;;;;;;5011915;28;94164;-70
2022/03/19 06:49:00;;;;;;;14.80;6.53;;;;;;;;;;5014733;28;95325;-71
2022/03/19 06:51:26;;;;;;;14.15;6.55;;;;;;;;;;5012463;28;94656;-71
2022/03/19 06:53:53;;;;;;;17.65;7.63;;;;;;;;;;5012205;28;92500;-70
2022/03/19 06:56:19;;;;;;;17.67;6.95;;;;;;;;;;5012268;28;93953;-71
2022/03/19 06:58:46;;;;;;;12.00;7.43;;;;;;;;;;5012814;28;93155;-71
2022/03/19 07:01:15;;;;;;;14.93;7.63;;;;;;;;;;5010849;28;92430;-70
2022/03/19 07:03:44;;;;;;;16.48;7.25;;;;;;;;;;5013226;28;94459;-70
2022/03/19 07:06:11;;;;;;;23.00;6.75;;;;;;;;;;5011825;28;93443;-70
2022/03/19 07:08:57;;;;;;;12.88;5.90;;;;;;;;;;5012840;28;92438;-70
2022/03/19 07:11:23;;;;;;;13.43;6.35;;;;;;;;;;5015280;28;93422;-71
2022/03/19 07:13:50;;;;;;;18.60;6.82;;;;;;;;;;5010625;28;94828;-70
2022/03/19 07:16:16;;;;;;;23.17;6.90;;;;;;;;;;5012541;28;95385;-69
2022/03/19 07:18:42;;;;;;;14.85;6.82;;;;;;;;;;5012480;28;94031;-69
2022/03/19 07:21:10;;;;;;;13.65;5.95;;;;;;;;;;5012294;28;93584;-69
2022/03/19 07:23:36;;;;;;;11.43;5.88;;;;;;;;;;5012566;28;93925;-70
2022/03/19 07:26:03;;;;;;;12.85;4.88;;;;;;;;;;5012497;28;94106;-70
2022/03/19 07:28:30;;;;;;;6.90;4.18;;;;;;;;;;5011985;28;92961;-72
2022/03/19 07:30:57;;;;;;;9.43;5.10;;;;;;;;;;5016037;28;94266;-72
2022/03/19 07:33:23;;;;;;;11.48;4.70;;;;;;;;;;5012320;28;92497;-70
2022/03/19 07:35:49;;;;;;;19.25;5.85;;;;;;;;;;5011838;28;94159;-72
2022/03/19 07:38:16;;;;;;;11.27;4.57;;;;;;;;;;5010186;28;95837;-72
2022/03/19 07:43:35;;;;;;;19.00;5.10;;;;;;;;;;5010514;28;93588;-69
2022/03/19 07:46:01;;;;;;;18.50;5.10;;;;;;;;;;5012100;28;93771;-71
2022/03/19 07:48:27;;;;;;;14.18;4.88;;;;;;;;;;5012102;28;92446;-71
2022/03/19 07:50:54;;;;;;;23.48;4.50;;;;;;;;;;5011607;28;93034;-71
2022/03/19 07:53:21;;;;;;;10.60;5.35;;;;;;;;;;5015151;28;93485;-71
2022/03/19 07:55:47;;;;;;;13.63;5.43;;;;;;;;;;5011807;28;93918;-70
2022/03/19 07:58:17;;;;;;;13.88;4.70;;;;;;;;;;5011815;28;94005;-71
2022/03/19 08:00:43;;;;;;;11.30;4.88;;;;;;;;;;5012481;28;92430;-72
2022/03/19 08:03:10;;;;;;;10.20;4.38;;;;;;;;;;5011369;28;94986;-72
2022/03/19 08:05:39;;;;;;;6.05;3.10;;;;;;;;;;5031730;28;93871;-71
2022/03/19 08:08:06;;;;;;;11.02;5.25;;;;;;;;;;5033180;27;92465;-70
2022/03/19 08:10:34;;;;;;;11.38;4.85;;;;;;;;;;5034964;28;94656;-70
2022/03/19 08:13:05;;;;;;;14.05;5.60;;;;;;;;;;5035442;27;92530;-70
2022/03/19 08:15:32;;;;;;;7.30;4.90;;;;;;;;;;5038432;28;92382;-71
2022/03/19 08:18:01;;;;;;;15.82;5.18;;;;;;;;;;5034641;28;94558;-70
2022/03/19 08:20:27;;;;;;;12.80;5.25;;;;;;;;;;5035565;27;91860;-70
2022/03/19 08:22:54;;;;;;;13.32;4.93;;;;;;;;;;5035754;27;93625;-70
2022/03/19 08:25:21;;;;;;;14.80;4.72;;;;;;;;;;5034596;27;93559;-70
2022/03/19 08:27:50;;;;;;;13.45;4.57;;;;;;;;;;5033806;28;94849;-70
2022/03/19 08:30:17;;;;;;;13.35;5.07;;;;;;;;;;5025183;27;95625;-71
2022/03/19 08:32:44;;;;;;;13.88;5.10;;;;;;;;;;5014510;28;93389;-71
2022/03/19 08:35:10;;;;;;;17.92;5.00;;;;;;;;;;5014830;28;92524;-71
2022/03/19 08:37:40;;;;;;;17.95;4.60;;;;;;;;;;5018214;28;92959;-71
2022/03/19 08:40:16;;;;;;;12.00;3.85;;;;;;;;;;5014379;28;92622;-71
2022/03/19 08:42:52;;;;;;;12.30;5.25;;;;;;;;;;5015368;28;93152;-71
2022/03/19 08:45:22;;;;;;;10.07;4.22;;;;;;;;;;5014436;28;93715;-71
2022/03/19 08:47:48;;;;;;;15.38;5.13;;;;;;;;;;5015123;28;93100;-71
2022/03/19 08:50:14;;;;;;;14.63;4.80;;;;;;;;;;5014730;28;94008;-71
2022/03/19 08:52:41;;;;;;;11.35;3.80;;;;;;;;;;5011103;28;95963;-71
2022/03/19 08:55:07;;;;;;;8.77;3.38;;;;;;;;;;5007211;28;92414;-71
2022/03/19 08:57:34;;;;;;;9.05;3.40;;;;;;;;;;5010194;28;94509;-71
2022/03/19 09:00:01;;;;;;;14.23;4.28;;;;;;;;;;5015700;28;93075;-71
2022/03/19 09:02:39;;;;;;;12.90;4.78;;;;;;;;;;5002764;28;93181;-71
2022/03/19 09:05:06;;;;;;;4.63;2.90;;;;;;;;;;5013765;28;93948;-71
2022/03/19 09:07:34;;;;;;;11.23;4.47;;;;;;;;;;5013784;28;92509;-71
2022/03/19 09:10:00;;;;;;;12.32;4.30;;;;;;;;;;5015641;27;92949;-71
2022/03/19 09:12:33;;;;;;;11.63;3.67;;;;;;;;;;5013877;28;93971;-70
2022/03/19 09:15:00;;;;;;;12.20;3.97;;;;;;;;;;5014224;28;92953;-70
2022/03/19 09:17:26;;;;;;;3.53;2.28;;;;;;;;;;5007597;28;94908;-71
2022/03/19 09:19:52;;;;;;;8.38;3.22;;;;;;;;;;5013169;28;93948;-70
2022/03/19 09:22:19;;;;;;;10.90;2.63;;;;;;;;;;5015732;28;94311;-71
2022/03/19 09:24:45;;;;;;;10.60;3.10;;;;;;;;;;5009569;28;94068;-71
2022/03/19 09:27:12;;;;;;;9.25;3.50;;;;;;;;;;5010674;28;95194;-70
2022/03/19 09:29:38;;;;;;;9.77;3.35;;;;;;;;;;5014146;28;93981;-71
2022/03/19 09:32:05;;;;;;;15.05;2.85;;;;;;;;;;5012947;28;94623;-73
2022/03/19 09:34:31;;;;;;;8.90;3.03;;;;;;;;;;5013719;28;91723;-71
2022/03/19 09:36:58;;;;;;;5.00;2.58;;;;;;;;;;5013486;28;92509;-73
2022/03/19 09:39:24;;;;;;;4.30;2.10;;;;;;;;;;5014027;28;93295;-73
2022/03/19 09:41:50;;;;;;;6.30;2.70;;;;;;;;;;5010094;28;95653;-73
2022/03/19 09:44:17;;;;;;;5.80;3.08;;;;;;;;;;5011063;28;92797;-71
2022/03/19 09:46:46;;;;;;;4.63;2.08;;;;;;;;;;5009033;28;92783;-71
2022/03/19 09:49:13;;;;;;;3.72;2.65;;;;;;;;;;5004235;28;93921;-71
2022/03/19 09:51:40;;;;;;;8.30;2.47;;;;;;;;;;5007263;28;94199;-71
2022/03/19 09:54:09;;;;;;;5.63;2.35;;;;;;;;;;5013912;28;92461;-71
2022/03/19 09:56:36;;;;;;;7.47;2.30;;;;;;;;;;5007463;28;93857;-71
2022/03/19 09:59:02;;;;;;;3.05;2.08;;;;;;;;;;5011792;28;93809;-71
2022/03/19 10:01:31;;;;;;;3.85;2.05;;;;;;;;;;5012085;28;93491;-71
2022/03/19 10:04:01;;;;;;;4.93;2.45;;;;;;;;;;5010589;28;94024;-71
2022/03/19 10:09:20;;;;;;;7.88;2.17;;;;;;;;;;5010123;28;95989;-71
2022/03/19 10:11:50;;;;;;;2.55;1.95;;;;;;;;;;5005620;28;94147;-71
2022/03/19 10:14:24;;;;;;;5.60;1.73;;;;;;;;;;5012348;28;92478;-71
2022/03/19 10:16:51;;;;;;;7.75;2.50;;;;;;;;;;5009000;28;94203;-71
2022/03/19 10:19:18;;;;;;;2.72;1.77;;;;;;;;;;5010871;28;93019;-72
2022/03/19 10:21:45;;;;;;;3.72;1.90;;;;;;;;;;5003049;28;92545;-70
2022/03/19 10:24:25;;;;;;;7.50;2.78;;;;;;;;;;4995387;28;93094;-71
2022/03/19 10:26:51;;;;;;;2.28;1.65;;;;;;;;;;5007923;28;94352;-71
2022/03/19 10:29:26;;;;;;;1.95;1.85;;;;;;;;;;5012753;28;93143;-73
2022/03/19 10:31:58;;;;;;;5.32;2.20;;;;;;;;;;5010139;28;96841;-71
2022/03/19 10:34:24;;;;;;;13.00;3.27;;;;;;;;;;5010686;28;93047;-73
2022/03/19 10:36:50;;;;;;;6.13;1.83;;;;;;;;;;5012044;28;94425;-73
2022/03/19 10:39:21;;;;;;;6.25;2.22;;;;;;;;;;5011579;28;93555;-73
2022/03/19 10:41:48;;;;;;;4.45;2.45;;;;;;;;;;5011930;28;92681;-73
2022/03/19 10:44:19;;;;;;;2.85;2.08;;;;;;;;;;5010944;28;93919;-72
2022/03/19 10:46:49;;;;;;;5.45;2.08;;;;;;;;;;5011720;28;94605;-72
2022/03/19 10:49:17;;;;;;;11.05;2.35;;;;;;;;;;5001504;28;92075;-73
2022/03/19 10:51:44;;;;;;;5.53;2.10;;;;;;;;;;5011625;28;93644;-73
2022/03/19 10:54:11;;;;;;;3.40;2.53;;;;;;;;;;4996154;28;93308;-73
2022/03/19 10:56:38;;;;;;;4.50;2.17;;;;;;;;;;4992516;28;95468;-75
2022/03/19 10:59:04;;;;;;;5.38;2.17;;;;;;;;;;4997508;28;94200;-73
2022/03/19 11:01:35;;;;;;;4.00;1.73;;;;;;;;;;5004639;28;92560;-73
2022/03/19 11:04:02;;;;;;;6.38;2.30;;;;;;;;;;5032864;27;92790;-73
2022/03/19 11:06:32;;;;;;;3.55;2.58;;;;;;;;;;5012443;27;93442;-72
2022/03/19 11:09:02;;;;;;;6.28;2.97;;;;;;;;;;4993051;28;93198;-73
2022/03/19 11:11:32;;;;;;;7.10;2.42;;;;;;;;;;5014087;28;94967;-72
2022/03/19 11:14:01;;;;;;;7.63;2.08;;;;;;;;;;5011565;28;92422;-72
2022/03/19 11:16:29;;;;;;;2.83;1.83;;;;;;;;;;5012818;28;92941;-73
2022/03/19 11:18:57;;;;;;;3.38;2.05;;;;;;;;;;5012927;28;93424;-72
2022/03/19 11:21:25;;;;;;;4.90;1.63;;;;;;;;;;5010457;28;95430;-73
2022/03/19 11:24:04;;;;;;;6.95;2.30;;;;;;;;;;5012181;28;96832;-73
2022/03/19 11:26:30;;;;;;;3.75;2.03;;;;;;;;;;5012597;28;93390;-73
2022/03/19 11:28:57;;;;;;;3.67;2.30;;;;;;;;;;5011744;28;92442;-73
2022/03/19 11:31:29;;;;;;;4.15;1.85;;;;;;;;;;5010756;28;94011;-73
2022/03/19 11:33:57;;;;;;;7.38;1.63;;;;;;;;;;5013988;28;93314;-73
2022/03/19 11:36:23;;;;;;;8.70;1.98;;;;;;;;;;5012449;28;92966;-72
2022/03/19 11:38:52;;;;;;;3.45;1.77;;;;;;;;;;5013335;28;92393;-72
2022/03/19 11:41:22;;;;;;;2.97;1.83;;;;;;;;;;5011576;28;93234;-72
2022/03/19 11:43:49;;;;;;;5.25;1.98;;;;;;;;;;5014827;28;93895;-73
2022/03/19 11:46:17;;;;;;;5.28;2.10;;;;;;;;;;5013659;28;96702;-73
2022/03/19 11:48:54;;;;;;;11.43;2.20;;;;;;;;;;5013826;28;94423;-73
2022/03/19 11:51:28;;;;;;;4.63;1.83;;;;;;;;;;5014078;28;94112;-73
2022/03/19 11:53:54;;;;;;;9.13;1.95;;;;;;;;;;5017797;28;94315;-72
2022/03/19 11:56:23;;;;;;;7.47;2.20;;;;;;;;;;5034843;27;93895;-73
2022/03/19 11:58:50;;;;;;;4.60;1.90;;;;;;;;;;5022192;27;94214;-71
2022/03/19 12:01:17;;;;;;;7.82;1.75;;;;;;;;;;5015675;28;92573;-72
2022/03/19 12:04:08;;;;;;;2.90;1.90;;;;;;;;;;5014226;28;94536;-72
2022/03/19 12:06:38;;;;;;;4.15;1.73;;;;;;;;;;4995482;28;93548;-72
2022/03/19 12:09:05;;;;;;;2.72;1.80;;;;;;;;;;4995565;28;92905;-72
2022/03/19 12:11:35;;;;;;;3.72;1.65;;;;;;;;;;4994089;28;94909;-72
2022/03/19 12:14:07;;;;;;;2.50;1.75;;;;;;;;;;4995399;28;94760;-72
2022/03/19 12:16:44;;;;;;;3.40;1.83;;;;;;;;;;4997654;28;92464;-72
2022/03/19 12:19:11;;;;;;;5.28;1.80;;;;;;;;;;5010228;28;94145;-72
2022/03/19 12:21:38;;;;;;;2.30;1.38;;;;;;;;;;5014363;28;92542;-72
2022/03/19 12:24:09;;;;;;;3.45;1.70;;;;;;;;;;5014874;28;92903;-72
2022/03/19 12:26:36;;;;;;;5.25;1.38;;;;;;;;;;5015353;28;93386;-72
2022/03/19 12:29:03;;;;;;;3.30;1.50;;;;;;;;;;5015484;28;91817;-72
2022/03/19 12:31:31;;;;;;;2.13;1.30;;;;;;;;;;5014200;28;93500;-72
2022/03/19 12:33:58;;;;;;;1.60;1.10;;;;;;;;;;5015335;28;93350;-72
2022/03/19 12:36:24;;;;;;;3.22;1.30;;;;;;;;;;5013581;28;94865;-72
2022/03/19 12:38:52;;;;;;;6.07;1.83;;;;;;;;;;5016374;28;95229;-72
2022/03/19 12:41:23;;;;;;;6.20;2.05;;;;;;;;;;4994971;28;92568;-72
2022/03/19 12:43:51;;;;;;;4.90;1.60;;;;;;;;;;4995271;28;93156;-72
2022/03/19 12:46:21;;;;;;;3.55;1.50;;;;;;;;;;4993893;28;94560;-72
2022/03/19 12:48:48;;;;;;;6.88;1.88;;;;;;;;;;5006844;28;92510;-72
2022/03/19 12:51:27;;;;;;;2.60;1.23;;;;;;;;;;5014019;28;94171;-72
2022/03/19 12:53:53;;;;;;;4.20;1.67;;;;;;;;;;5015571;28;93512;-72
2022/03/19 12:56:21;;;;;;;2.33;1.30;;;;;;;;;;5014722;28;92474;-72
2022/03/19 12:58:49;;;;;;;4.40;1.50;;;;;;;;;;5012814;28;92633;-72
2022/03/19 13:01:17;;;;;;;4.35;2.00;;;;;;;;;;5015661;28;97104;-72
2022/03/19 13:03:44;;;;;;;3.70;1.20;;;;;;;;;;5014573;28;96464;-72
2022/03/19 13:06:11;;;;;;;8.50;1.67;;;;;;;;;;5012995;28;93519;-72
2022/03/19 13:08:44;;;;;;;5.22;1.23;;;;;;;;;;5014237;28;92501;-72
2022/03/19 13:11:13;;;;;;;4.45;1.70;;;;;;;;;;5014381;27;93233;-72
2022/03/19 13:13:40;;;;;;;2.88;1.42;;;;;;;;;;5013436;28;93461;-72
2022/03/19 13:16:07;;;;;;;5.25;1.45;;;;;;;;;;5013353;28;92700;-72
2022/03/19 13:18:35;;;;;;;13.13;1.30;;;;;;;;;;5014896;28;93709;-72
2022/03/19 13:21:09;;;;;;;3.70;1.65;;;;;;;;;;5013457;28;93443;-72
2022/03/19 13:23:37;;;;;;;2.13;1.27;;;;;;;;;;5017779;28;92820;-72
2022/03/19 13:26:04;;;;;;;8.27;1.77;;;;;;;;;;5012788;28;95807;-72
2022/03/19 13:28:31;;;;;;;5.18;1.70;;;;;;;;;;5012725;28;92483;-72
2022/03/19 13:30:58;;;;;;;6.57;1.33;;;;;;;;;;5012351;28;94052;-72
2022/03/19 13:33:29;;;;;;;7.40;1.80;;;;;;;;;;5013052;28;94263;-72
2022/03/19 13:35:56;;;;;;;4.40;1.52;;;;;;;;;;5015090;27;92756;-72
2022/03/19 13:38:24;;;;;;;3.75;2.22;;;;;;;;;;5014227;28;93438;-72
2022/03/19 13:40:52;;;;;;;4.25;1.85;;;;;;;;;;5013422;28;93442;-72
2022/03/19 13:43:20;;;;;;;2.22;1.67;;;;;;;;;;5014413;28;91724;-72
2022/03/19 13:45:46;;;;;;;1.85;1.45;;;;;;;;;;5016593;28;92715;-72
2022/03/19 13:48:13;;;;;;;4.82;1.95;;;;;;;;;;5013061;28;92936;-72
2022/03/19 13:50:54;;;;;;;2.50;1.08;;;;;;;;;;5011380;28;94901;-72
2022/03/19 13:53:21;;;;;;;3.17;1.60;;;;;;;;;;5013769;28;93548;-72
2022/03/19 13:55:47;;;;;;;5.03;1.80;;;;;;;;;;5009476;28;92469;-72
2022/03/19 13:58:14;;;;;;;4.88;1.92;;;;;;;;;;5009111;28;94065;-72
2022/03/19 14:00:42;;;;;;;2.67;1.80;;;;;;;;;;5011511;28;93689;-72
2022/03/19 14:03:09;;;;;;;4.57;1.83;;;;;;;;;;5011037;28;92905;-73
2022/03/19 14:05:37;;;;;;;5.82;2.05;;;;;;;;;;5013981;28;94808;-71
2022/03/19 14:08:05;;;;;;;2.15;1.30;;;;;;;;;;5007673;28;91736;-73
2022/03/19 14:10:34;;;;;;;3.30;1.58;;;;;;;;;;4992155;28;93153;-74
2022/03/19 14:13:07;;;;;;;3.13;1.73;;;;;;;;;;4994190;28;93655;-74
2022/03/19 14:15:38;;;;;;;2.75;1.33;;;;;;;;;;4991565;28;94875;-71
2022/03/19 14:18:05;;;;;;;6.40;1.55;;;;;;;;;;5005860;28;95660;-75
2022/03/19 14:20:31;;;;;;;3.25;1.30;;;;;;;;;;5012195;28;94316;-72
2022/03/19 14:22:57;;;;;;;5.72;1.48;;;;;;;;;;5010573;28;92894;-72
2022/03/19 14:25:24;;;;;;;3.10;1.65;;;;;;;;;;5013288;28;93800;-74
2022/03/19 14:28:02;;;;;;;3.65;1.42;;;;;;;;;;5015646;28;94216;-72
2022/03/19 14:30:29;;;;;;;6.55;1.65;;;;;;;;;;5009554;28;94215;-74
2022/03/19 14:32:59;;;;;;;2.47;1.60;;;;;;;;;;5012792;28;92377;-75
2022/03/19 14:35:45;;;;;;;4.88;1.35;;;;;;;;;;5013251;28;92468;-72
2022/03/19 14:38:14;;;;;;;11.95;2.78;;;;;;;;;;5008538;28;94557;-75
2022/03/19 14:40:41;;;;;;;2.53;1.30;;;;;;;;;;5011202;28;96121;-72
2022/03/19 14:43:07;;;;;;;2.47;1.30;;;;;;;;;;5012631;28;92471;-76
2022/03/19 14:45:34;;;;;;;1.98;1.38;;;;;;;;;;5012035;28;94292;-76
2022/03/19 14:48:00;;;;;;;3.15;1.00;;;;;;;;;;5009384;28;94144;-74
2022/03/19 14:50:28;;;;;;;5.57;1.27;;;;;;;;;;5012804;28;94253;-77
2022/03/19 14:52:55;;;;;;;3.55;1.48;;;;;;;;;;5011844;28;94899;-76
2022/03/19 14:55:23;;;;;;;3.53;1.67;;;;;;;;;;5009447;28;92519;-77